Startpagina
METAR-TAF:

METAR-TAF

Vliegvelden :

Aeropuerto de Gran Canaria

Gran Canaria, Spanje

breedte: 27-56N, lengte: 015-23W, hoogte: 23 m

Actueel weer

Dit bericht is 20 minuten geleden gemaakt, om 15:30 UTC
Wind 24 kt uit het noordnoordoosten
Temperatuur 25°C
Vochtigheid 61%
Druk 1018 hPa
Zicht 10 km of meer
Weinig wolken op 3500 ft
Verspreide wolken op 4700 ft

METAR: GCLP 171530Z 02024KT 9999 FEW035 SCT047 25/17 Q1018 NOSIG

Tijdstip: 16:50 (15:50 UTC)

Verwachting

Dit bericht is 1 uur en het 50 minuten geleden gemaakt, om 14:00 UTC
Verwachting geldig van 17 om 15 UTC tot 18 om 15 UTC
Wind 17 kt uit het noorden
Zicht 10 km of meer
Verspreide wolken op 4500 ft
Kans 30% :
Tijdelijke
van 17 om 15 UTC tot 17 om 20 UTC
Wind 17 kt uit het noorden met uitschieters tot 27 kt
Kans 30% :
Tijdelijke
van 18 om 09 UTC tot 18 om 14 UTC
motregen, regen

TAF: GCLP 171400Z 1715/1815 36017KT 9999 SCT045 TX25/1815Z TN20/1805Z PROB30 TEMPO 1715/1720 36017G27KT PROB30 TEMPO 1809/1814 DZRA

Waarnemingen en weersverwachtingen van meer dan 4000 vliegvelden (METAR en TAF).

De beschikbare stations zijn de gele en rode punten op de kaart.

Ga met uw muis naar het station om de naam te zien.

Klik dan om waarnemingen en weersverwachtingen te zien.

kaart wijzigen: klik op de groene knoppen met een zwart kruis om in te zoomen, op de groene knop met een streepje om uit te zoomen of op de groene pijlen voor aangrenzende kaarten.


METAR-TAF: